Time;durP1;ratioP1;P1;durP2;ratioP2;P2;SDS_P1;SDS_P2;PMS_P1;PMS_P2;Temp;Humidity;BMP_temperature;BMP_pressure;BME280_temperature;BME280_humidity;BME280_pressure;Samples;Min_cycle;Max_cycle;Signal;HPM_P1;HPM_P2
2024/01/23 00:01:35;;;;;;;93.60;53.13;;;15.10;65.40;;;;;;4910227;28;94631;-77
2024/01/23 00:04:01;;;;;;;91.75;52.90;;;15.10;65.30;;;;;;4910187;28;95318;-78
2024/01/23 00:06:27;;;;;;;91.13;53.03;;;15.10;65.30;;;;;;4914548;28;95515;-77
2024/01/23 00:08:53;;;;;;;91.22;53.05;;;15.10;65.30;;;;;;4913406;28;97978;-77
2024/01/23 00:11:19;;;;;;;93.40;53.03;;;15.10;65.30;;;;;;4909895;28;94755;-76
2024/01/23 00:13:49;;;;;;;92.20;52.70;;;15.10;65.50;;;;;;4907619;28;95532;-77
2024/01/23 00:16:14;;;;;;;92.03;52.75;;;15.00;65.20;;;;;;4915603;28;94835;-77
2024/01/23 00:18:40;;;;;;;91.53;52.60;;;15.10;65.20;;;;;;4908819;28;94720;-77
2024/01/23 00:21:06;;;;;;;90.57;52.80;;;15.10;65.40;;;;;;4911988;28;94949;-77
2024/01/23 00:23:31;;;;;;;90.75;52.67;;;15.00;65.20;;;;;;4908760;28;94624;-76
2024/01/23 00:25:57;;;;;;;92.90;53.15;;;15.00;65.10;;;;;;4906555;28;95392;-76
2024/01/23 00:28:23;;;;;;;97.35;53.35;;;15.00;65.00;;;;;;4918679;28;100115;-78
2024/01/23 00:30:48;;;;;;;92.60;52.83;;;15.00;65.00;;;;;;4911472;28;97782;-79
2024/01/23 00:33:14;;;;;;;91.78;52.50;;;15.00;65.20;;;;;;4911166;28;95602;-77
2024/01/23 00:35:40;;;;;;;90.88;52.75;;;15.00;64.90;;;;;;4923603;28;94705;-76
2024/01/23 00:38:06;;;;;;;92.07;52.75;;;15.00;65.00;;;;;;4908236;28;94917;-78
2024/01/23 00:40:32;;;;;;;92.25;53.13;;;15.00;65.00;;;;;;4910416;28;94973;-79
2024/01/23 00:42:58;;;;;;;90.63;52.58;;;15.00;64.80;;;;;;4902477;28;94369;-78
2024/01/23 00:45:23;;;;;;;90.68;52.88;;;15.00;64.80;;;;;;4913805;28;94061;-76
2024/01/23 00:47:49;;;;;;;89.60;52.50;;;15.00;64.60;;;;;;4915639;28;95415;-76
2024/01/23 00:50:15;;;;;;;91.90;52.75;;;15.00;64.80;;;;;;4910522;28;95253;-76
2024/01/23 00:52:40;;;;;;;91.80;52.83;;;15.00;64.80;;;;;;4916062;28;95935;-77
2024/01/23 00:55:07;;;;;;;92.22;52.40;;;15.00;64.90;;;;;;4916659;28;94711;-78
2024/01/23 00:57:33;;;;;;;91.70;52.78;;;14.90;65.00;;;;;;4901202;28;95812;-79
2024/01/23 00:59:58;;;;;;;89.55;52.20;;;14.90;65.10;;;;;;4914257;28;94739;-78
2024/01/23 01:02:24;;;;;;;90.00;53.10;;;14.90;65.40;;;;;;4917792;28;94446;-78
2024/01/23 01:04:50;;;;;;;92.40;52.38;;;14.80;65.20;;;;;;4913310;28;95224;-78
2024/01/23 01:07:15;;;;;;;91.20;52.25;;;14.80;65.30;;;;;;4912990;28;95032;-78
2024/01/23 01:09:41;;;;;;;89.20;52.45;;;14.80;65.20;;;;;;4914312;28;94831;-79
2024/01/23 01:12:07;;;;;;;90.57;52.75;;;14.90;65.40;;;;;;4915136;28;94881;-79
2024/01/23 01:14:34;;;;;;;89.93;52.55;;;14.80;65.20;;;;;;4921790;28;94532;-79
2024/01/23 01:17:00;;;;;;;91.20;52.90;;;14.80;65.30;;;;;;4914182;28;96822;-79
2024/01/23 01:19:25;;;;;;;89.78;52.40;;;14.80;65.30;;;;;;4915934;28;97697;-78
2024/01/23 01:21:51;;;;;;;92.25;52.55;;;14.80;65.10;;;;;;4912128;28;94309;-79
2024/01/23 01:24:17;;;;;;;90.03;52.25;;;14.80;65.20;;;;;;4913280;28;95805;-79
2024/01/23 01:26:43;;;;;;;91.35;52.88;;;14.80;65.20;;;;;;4919704;28;96188;-79
2024/01/23 01:29:09;;;;;;;90.85;52.72;;;14.80;65.30;;;;;;4914666;28;94686;-80
2024/01/23 01:31:34;;;;;;;92.10;52.60;;;14.80;65.30;;;;;;4921404;28;94392;-79
2024/01/23 01:34:00;;;;;;;91.03;52.88;;;14.80;65.20;;;;;;4931913;28;93217;-79
2024/01/23 01:36:26;;;;;;;92.55;52.65;;;14.80;64.70;;;;;;4916213;28;95192;-78
2024/01/23 01:38:51;;;;;;;88.85;53.08;;;14.70;65.10;;;;;;4914170;28;94807;-78
2024/01/23 01:41:17;;;;;;;91.45;52.58;;;14.70;64.80;;;;;;4910123;28;95543;-78
2024/01/23 01:43:43;;;;;;;90.57;52.83;;;14.70;65.10;;;;;;4915280;28;95809;-78
2024/01/23 01:46:15;;;;;;;92.38;52.25;;;14.70;64.80;;;;;;4914208;28;95385;-78
2024/01/23 01:48:41;;;;;;;92.78;52.85;;;14.70;64.80;;;;;;4914674;28;94672;-78
2024/01/23 01:51:07;;;;;;;89.93;52.42;;;14.70;64.90;;;;;;4911362;28;94926;-78
2024/01/23 01:53:34;;;;;;;89.75;52.30;;;14.70;65.00;;;;;;4914180;28;94960;-78
2024/01/23 01:56:01;;;;;;;90.05;52.42;;;14.70;65.00;;;;;;4912559;28;94931;-78
2024/01/23 01:58:28;;;;;;;90.18;52.33;;;14.70;65.00;;;;;;4911034;28;95876;-78
2024/01/23 02:00:55;;;;;;;87.75;52.20;;;14.60;64.60;;;;;;4911957;28;94591;-79
2024/01/23 02:03:23;;;;;;;88.05;51.58;;;14.60;64.60;;;;;;4915280;28;94428;-78
2024/01/23 02:05:50;;;;;;;92.88;52.63;;;14.60;64.80;;;;;;4911050;28;100045;-78
2024/01/23 02:08:16;;;;;;;89.80;51.95;;;14.60;64.60;;;;;;4914338;28;95924;-79
2024/01/23 02:10:43;;;;;;;89.25;52.28;;;14.60;64.70;;;;;;4912360;28;94074;-79
2024/01/23 02:13:09;;;;;;;91.97;51.97;;;14.60;64.60;;;;;;4919109;28;94612;-77
2024/01/23 02:15:35;;;;;;;91.60;52.63;;;14.60;64.60;;;;;;4908996;28;94506;-77
2024/01/23 02:18:01;;;;;;;89.88;51.97;;;14.60;64.60;;;;;;4911416;28;94884;-78
2024/01/23 02:20:26;;;;;;;88.10;52.25;;;14.60;64.60;;;;;;4911666;28;95484;-78
2024/01/23 02:22:53;;;;;;;89.95;52.50;;;14.60;64.60;;;;;;4919052;28;94322;-77
2024/01/23 02:25:18;;;;;;;89.25;52.10;;;14.60;64.60;;;;;;4916619;28;96791;-76
2024/01/23 02:27:44;;;;;;;89.88;52.53;;;14.60;64.60;;;;;;4909988;28;94555;-77
2024/01/23 02:30:10;;;;;;;90.10;52.10;;;14.60;64.60;;;;;;4919613;28;95427;-78
2024/01/23 02:32:36;;;;;;;90.45;52.50;;;14.60;64.40;;;;;;4917455;28;94149;-76
2024/01/23 02:35:02;;;;;;;88.40;51.78;;;14.60;64.60;;;;;;4910548;28;99795;-77
2024/01/23 02:37:28;;;;;;;90.05;51.78;;;14.60;64.60;;;;;;4915727;28;95183;-77
2024/01/23 02:39:53;;;;;;;90.43;52.50;;;14.60;64.50;;;;;;4914340;28;95700;-77
2024/01/23 02:42:19;;;;;;;87.30;52.25;;;14.60;64.40;;;;;;4908420;28;94656;-77
2024/01/23 02:44:48;;;;;;;88.63;52.70;;;14.60;64.30;;;;;;4912852;28;94654;-77
2024/01/23 02:47:13;;;;;;;87.63;52.05;;;14.60;64.40;;;;;;4912280;28;94609;-78
2024/01/23 02:49:39;;;;;;;86.75;51.95;;;14.60;64.40;;;;;;4916977;28;95155;-77
2024/01/23 02:52:05;;;;;;;89.60;52.40;;;14.60;64.50;;;;;;4906018;28;94740;-76
2024/01/23 02:54:33;;;;;;;89.82;51.97;;;14.60;64.50;;;;;;4914234;28;96420;-77
2024/01/23 02:57:00;;;;;;;87.30;52.15;;;14.60;64.50;;;;;;4909802;28;95583;-76
2024/01/23 02:59:25;;;;;;;88.65;52.63;;;14.50;64.40;;;;;;4913769;28;94378;-77
2024/01/23 03:01:51;;;;;;;87.25;52.10;;;14.60;64.50;;;;;;4918669;28;94848;-77
2024/01/23 03:04:17;;;;;;;89.10;52.17;;;14.50;65.00;;;;;;4907982;28;95790;-77
2024/01/23 03:06:42;;;;;;;90.53;52.42;;;14.50;64.40;;;;;;4910667;28;94373;-77
2024/01/23 03:09:10;;;;;;;90.07;52.30;;;14.60;64.30;;;;;;4912133;28;95007;-78
2024/01/23 03:11:37;;;;;;;87.75;51.80;;;14.50;64.40;;;;;;4911234;28;93626;-77
2024/01/23 03:14:03;;;;;;;91.95;52.72;;;14.50;64.40;;;;;;4911877;28;95406;-78
2024/01/23 03:16:29;;;;;;;88.28;52.20;;;14.50;64.30;;;;;;4912823;28;95245;-79
2024/01/23 03:18:54;;;;;;;90.03;52.00;;;14.50;64.30;;;;;;4917205;28;95342;-77
2024/01/23 03:21:20;;;;;;;87.10;51.83;;;14.60;64.40;;;;;;4911771;28;94781;-78
2024/01/23 03:23:46;;;;;;;90.28;51.85;;;14.50;64.30;;;;;;4919135;28;98059;-78
2024/01/23 03:26:11;;;;;;;89.00;52.22;;;14.50;64.40;;;;;;4913204;28;95111;-78
2024/01/23 03:28:37;;;;;;;88.85;52.53;;;14.50;64.30;;;;;;4910355;28;94773;-78
2024/01/23 03:31:06;;;;;;;87.40;52.25;;;14.50;64.30;;;;;;4914201;28;94454;-81
2024/01/23 03:33:33;;;;;;;87.30;51.92;;;14.50;64.40;;;;;;4913973;28;98267;-81
2024/01/23 03:35:58;;;;;;;88.38;52.47;;;14.50;64.50;;;;;;4914493;28;94433;-81
2024/01/23 03:38:24;;;;;;;89.32;52.17;;;14.50;64.50;;;;;;4911450;28;94413;-80
2024/01/23 03:40:50;;;;;;;88.32;52.33;;;14.50;64.50;;;;;;4910683;28;94554;-79
2024/01/23 03:43:15;;;;;;;88.18;51.92;;;14.50;64.40;;;;;;4912665;28;96689;-80
2024/01/23 03:45:41;;;;;;;87.82;52.30;;;14.40;64.40;;;;;;4913154;28;95880;-79
2024/01/23 03:48:07;;;;;;;88.90;52.47;;;14.40;64.40;;;;;;4918119;28;94535;-80
2024/01/23 03:50:33;;;;;;;86.97;51.45;;;14.40;64.50;;;;;;4914232;28;95513;-81
2024/01/23 03:52:58;;;;;;;87.82;51.78;;;14.40;64.40;;;;;;4917853;28;95993;-80
2024/01/23 03:55:25;;;;;;;92.45;52.13;;;14.40;64.30;;;;;;4908838;28;95421;-79
2024/01/23 03:57:51;;;;;;;89.82;51.80;;;14.40;64.30;;;;;;4908569;28;94412;-80
2024/01/23 04:00:18;;;;;;;86.03;51.50;;;14.40;64.40;;;;;;4909719;28;94857;-82
2024/01/23 04:02:43;;;;;;;86.20;51.85;;;14.40;64.40;;;;;;4915355;28;97208;-78
2024/01/23 04:05:10;;;;;;;87.10;51.90;;;14.40;64.40;;;;;;4906406;28;95428;-80
2024/01/23 04:07:35;;;;;;;88.28;51.97;;;14.40;64.50;;;;;;4913239;28;95481;-81
2024/01/23 04:10:04;;;;;;;88.40;51.97;;;14.40;64.50;;;;;;4914297;28;94279;-79
2024/01/23 04:12:29;;;;;;;88.20;51.65;;;14.40;64.50;;;;;;4911980;28;95131;-80
2024/01/23 04:14:55;;;;;;;87.80;52.22;;;14.40;64.50;;;;;;4913027;28;95159;-80
2024/01/23 04:17:21;;;;;;;87.93;51.83;;;14.40;64.50;;;;;;4909851;28;95175;-80
2024/01/23 04:19:47;;;;;;;88.72;51.83;;;14.40;64.50;;;;;;4913115;28;94621;-80
2024/01/23 04:22:12;;;;;;;87.70;51.75;;;14.30;64.40;;;;;;4913907;28;95507;-81
2024/01/23 04:24:40;;;;;;;89.68;52.03;;;14.30;64.40;;;;;;4915387;28;94571;-79
2024/01/23 04:27:07;;;;;;;86.90;52.15;;;14.30;64.50;;;;;;4912452;28;95178;-81
2024/01/23 04:29:33;;;;;;;88.97;52.10;;;14.30;64.60;;;;;;4910895;28;94644;-80
2024/01/23 04:31:59;;;;;;;86.82;51.55;;;14.30;64.60;;;;;;4920422;28;95841;-81
2024/01/23 04:34:24;;;;;;;88.82;51.83;;;14.30;64.60;;;;;;4915612;28;96182;-83
2024/01/23 04:36:50;;;;;;;87.95;52.40;;;14.30;64.60;;;;;;4921852;28;93931;-81
2024/01/23 04:39:19;;;;;;;86.95;52.15;;;14.30;64.60;;;;;;4910341;28;93946;-81
2024/01/23 04:41:45;;;;;;;88.88;51.90;;;14.30;64.80;;;;;;4916365;28;95435;-79
2024/01/23 04:44:10;;;;;;;87.90;51.40;;;14.20;64.60;;;;;;4910093;28;96846;-79
2024/01/23 04:46:36;;;;;;;85.95;51.90;;;14.20;65.20;;;;;;4912781;28;94992;-78
2024/01/23 04:49:02;;;;;;;88.03;52.05;;;14.30;64.60;;;;;;4912743;28;95789;-77
2024/01/23 04:51:29;;;;;;;88.13;52.15;;;14.30;64.60;;;;;;4911781;28;95733;-78
2024/01/23 04:53:55;;;;;;;85.57;51.63;;;14.20;64.60;;;;;;4909900;28;95004;-76
2024/01/23 04:56:21;;;;;;;87.47;51.97;;;14.20;64.70;;;;;;4911223;28;95912;-78
2024/01/23 04:58:48;;;;;;;87.93;51.10;;;14.20;64.60;;;;;;4915373;28;94949;-77
2024/01/23 05:01:14;;;;;;;87.45;51.67;;;14.20;64.70;;;;;;4909050;28;95102;-76
2024/01/23 05:03:40;;;;;;;88.13;52.15;;;14.20;64.70;;;;;;4907716;28;95617;-77
2024/01/23 05:06:05;;;;;;;86.75;51.90;;;14.10;64.80;;;;;;4907121;28;94285;-78
2024/01/23 05:08:31;;;;;;;87.30;51.53;;;14.20;64.90;;;;;;4914531;28;94644;-77
2024/01/23 05:10:57;;;;;;;88.93;51.63;;;14.20;64.90;;;;;;4911866;28;95737;-79
2024/01/23 05:13:22;;;;;;;86.50;51.88;;;14.20;64.80;;;;;;4911460;28;98132;-80
2024/01/23 05:15:48;;;;;;;86.35;51.58;;;14.20;64.90;;;;;;4908149;28;95026;-81
2024/01/23 05:18:14;;;;;;;87.72;52.05;;;14.20;65.10;;;;;;4919175;28;95222;-76
2024/01/23 05:20:40;;;;;;;87.43;52.15;;;14.20;64.90;;;;;;4920776;28;96147;-76
2024/01/23 05:23:06;;;;;;;88.43;52.22;;;14.20;65.00;;;;;;4923047;28;95977;-75
2024/01/23 05:25:31;;;;;;;86.88;51.72;;;14.20;64.90;;;;;;4913579;28;96228;-76
2024/01/23 05:27:57;;;;;;;87.57;51.58;;;14.20;64.90;;;;;;4915155;28;94649;-77
2024/01/23 05:30:23;;;;;;;89.65;52.15;;;14.10;64.70;;;;;;4912248;28;94764;-76
2024/01/23 05:32:50;;;;;;;89.35;52.40;;;14.10;64.80;;;;;;4911841;28;95463;-76
2024/01/23 05:35:16;;;;;;;88.03;51.63;;;14.10;65.00;;;;;;4917343;28;94520;-77
2024/01/23 05:37:42;;;;;;;88.75;51.58;;;14.10;64.80;;;;;;4912382;28;94866;-77
2024/01/23 05:40:11;;;;;;;86.03;51.55;;;14.10;64.90;;;;;;4910052;28;95073;-77
2024/01/23 05:42:37;;;;;;;91.15;52.42;;;14.10;64.80;;;;;;4916761;28;94820;-76
2024/01/23 05:45:03;;;;;;;91.72;52.13;;;14.10;64.80;;;;;;4916365;28;95688;-77
2024/01/23 05:47:29;;;;;;;89.38;51.65;;;14.10;65.40;;;;;;4912680;28;94607;-76
2024/01/23 05:49:55;;;;;;;87.70;52.15;;;14.10;65.40;;;;;;4914183;28;94297;-78
2024/01/23 05:52:20;;;;;;;88.13;52.17;;;14.10;66.30;;;;;;4913557;28;94652;-77
2024/01/23 05:54:46;;;;;;;88.65;52.20;;;14.00;66.50;;;;;;4913013;28;95211;-75
2024/01/23 05:57:12;;;;;;;87.80;52.08;;;14.10;67.00;;;;;;4910976;28;95452;-75
2024/01/23 05:59:38;;;;;;;91.32;51.78;;;14.10;67.10;;;;;;4914000;28;94661;-77
2024/01/23 06:02:04;;;;;;;91.80;52.78;;;14.00;66.80;;;;;;4912141;28;95257;-73
2024/01/23 06:04:30;;;;;;;91.28;52.58;;;14.00;68.00;;;;;;4914362;28;94126;-75
2024/01/23 06:06:56;;;;;;;90.57;52.78;;;14.00;68.00;;;;;;4909882;28;95352;-76
2024/01/23 06:09:22;;;;;;;91.13;52.80;;;14.00;68.30;;;;;;4909259;28;97853;-76
2024/01/23 06:11:47;;;;;;;91.63;52.58;;;14.00;68.70;;;;;;4907769;28;97304;-79
2024/01/23 06:14:13;;;;;;;89.90;52.38;;;14.00;68.00;;;;;;4910209;28;95755;-77
2024/01/23 06:16:39;;;;;;;92.90;52.58;;;14.00;68.00;;;;;;4907711;28;95503;-76
2024/01/23 06:19:08;;;;;;;91.95;52.72;;;14.00;68.40;;;;;;4908306;28;99849;-76
2024/01/23 06:21:35;;;;;;;89.22;52.25;;;14.00;68.60;;;;;;4906043;28;95004;-76
2024/01/23 06:24:00;;;;;;;86.93;51.92;;;14.00;69.10;;;;;;4906531;28;94796;-77
2024/01/23 06:26:26;;;;;;;93.18;52.92;;;14.00;69.10;;;;;;4910832;28;94642;-77
2024/01/23 06:28:52;;;;;;;94.63;53.20;;;14.00;70.00;;;;;;4908747;28;98018;-79
2024/01/23 06:31:19;;;;;;;92.32;53.13;;;14.00;70.60;;;;;;4918048;28;95295;-82
2024/01/23 06:33:45;;;;;;;97.70;53.22;;;14.10;70.70;;;;;;4910537;28;95811;-82
2024/01/23 06:36:11;;;;;;;97.97;52.92;;;14.00;70.70;;;;;;4913738;28;94371;-83
2024/01/23 06:38:36;;;;;;;91.40;53.03;;;14.00;70.70;;;;;;4914145;28;95011;-83
2024/01/23 06:41:02;;;;;;;91.78;52.83;;;14.00;70.40;;;;;;4912756;28;94619;-83
2024/01/23 06:43:28;;;;;;;93.53;52.88;;;14.00;70.40;;;;;;4912939;28;94668;-83
2024/01/23 06:45:55;;;;;;;96.53;52.97;;;14.00;70.20;;;;;;4914759;28;95687;-84
2024/01/23 06:48:21;;;;;;;92.50;52.75;;;14.00;70.00;;;;;;4913952;28;94949;-84
2024/01/23 06:50:47;;;;;;;90.60;52.65;;;14.00;69.90;;;;;;4909453;28;94840;-83
2024/01/23 06:53:12;;;;;;;93.97;52.05;;;14.00;69.50;;;;;;4913505;28;94121;-83
2024/01/23 06:55:38;;;;;;;94.63;52.78;;;14.00;69.20;;;;;;4914720;28;94878;-83
2024/01/23 06:58:04;;;;;;;94.93;52.83;;;14.00;69.10;;;;;;4911190;28;95937;-82
2024/01/23 07:00:30;;;;;;;96.25;51.90;;;14.00;68.90;;;;;;4918832;28;96125;-82
2024/01/23 07:02:56;;;;;;;90.35;52.38;;;14.00;68.70;;;;;;4908608;28;94473;-82
2024/01/23 07:05:21;;;;;;;88.82;52.10;;;14.00;68.60;;;;;;4918987;28;95551;-83
2024/01/23 07:07:47;;;;;;;91.80;52.53;;;14.00;68.50;;;;;;4917112;28;94700;-84
2024/01/23 07:10:13;;;;;;;90.43;52.75;;;14.00;68.40;;;;;;4911899;28;95116;-84
2024/01/23 07:12:38;;;;;;;94.53;52.55;;;14.00;68.30;;;;;;4909174;28;95466;-84
2024/01/23 07:15:04;;;;;;;91.53;51.90;;;14.00;68.10;;;;;;4916321;28;94478;-84
2024/01/23 07:17:30;;;;;;;89.13;52.58;;;13.90;67.90;;;;;;4911053;28;96202;-84
2024/01/23 07:19:56;;;;;;;88.63;52.33;;;13.90;67.90;;;;;;4911263;28;94688;-83
2024/01/23 07:22:21;;;;;;;86.85;52.13;;;13.90;67.90;;;;;;4907986;28;96552;-84
2024/01/23 07:24:47;;;;;;;88.88;52.35;;;13.90;67.70;;;;;;4916135;28;94341;-84
2024/01/23 07:27:13;;;;;;;91.28;52.50;;;13.90;67.60;;;;;;4914091;28;95179;-84
2024/01/23 07:29:39;;;;;;;89.00;52.40;;;13.90;67.50;;;;;;4913040;28;97691;-84
2024/01/23 07:32:05;;;;;;;89.78;52.30;;;13.90;67.40;;;;;;4924550;28;95502;-84
2024/01/23 07:34:31;;;;;;;90.50;52.30;;;13.90;67.40;;;;;;4911036;28;94633;-84
2024/01/23 07:36:57;;;;;;;92.10;52.42;;;13.90;67.30;;;;;;4912637;28;95245;-83
2024/01/23 07:39:23;;;;;;;91.95;52.30;;;13.90;67.20;;;;;;4908044;28;94893;-84
2024/01/23 07:41:48;;;;;;;87.13;52.05;;;13.90;67.10;;;;;;4910306;28;94862;-84
2024/01/23 07:44:14;;;;;;;91.60;51.83;;;13.90;67.10;;;;;;4910293;28;94329;-84
2024/01/23 07:46:40;;;;;;;87.57;51.78;;;13.90;67.10;;;;;;4915473;28;96370;-84
2024/01/23 07:49:05;;;;;;;88.20;52.22;;;13.90;67.00;;;;;;4914069;28;95931;-84
2024/01/23 07:51:49;;;;;;;87.68;51.90;;;13.90;67.00;;;;;;4921469;28;94230;-84
2024/01/23 07:54:15;;;;;;;89.55;52.35;;;13.90;66.80;;;;;;4906045;28;95128;-84
2024/01/23 07:56:41;;;;;;;88.55;51.78;;;13.90;66.80;;;;;;4911159;28;97480;-83
2024/01/23 07:59:07;;;;;;;87.78;52.03;;;13.90;66.80;;;;;;4908186;28;94433;-84
2024/01/23 08:01:33;;;;;;;88.13;52.13;;;13.90;66.70;;;;;;4913067;28;95885;-84
2024/01/23 08:03:58;;;;;;;90.43;52.33;;;13.90;66.60;;;;;;4909478;28;93274;-80
2024/01/23 08:06:25;;;;;;;90.35;52.03;;;13.90;66.50;;;;;;4921054;28;95824;-80
2024/01/23 08:08:51;;;;;;;89.97;52.15;;;13.90;66.40;;;;;;4920074;28;95525;-82
2024/01/23 08:11:17;;;;;;;86.57;51.75;;;13.90;66.40;;;;;;4909179;28;95828;-83
2024/01/23 08:13:43;;;;;;;89.63;52.20;;;13.90;66.40;;;;;;4914068;28;95456;-83
2024/01/23 08:16:09;;;;;;;89.60;52.13;;;13.90;66.40;;;;;;4912574;28;94819;-82
2024/01/23 08:18:36;;;;;;;86.10;52.30;;;13.90;66.20;;;;;;4911456;28;94623;-83
2024/01/23 08:21:02;;;;;;;88.63;52.00;;;13.90;66.20;;;;;;4910422;28;95231;-83
2024/01/23 08:23:28;;;;;;;88.47;51.80;;;13.90;66.10;;;;;;4915240;28;94693;-83
2024/01/23 08:25:54;;;;;;;89.85;52.03;;;13.90;66.00;;;;;;4911654;28;94829;-83
2024/01/23 08:28:20;;;;;;;89.38;52.22;;;13.90;66.00;;;;;;4908091;28;94284;-83
2024/01/23 08:30:46;;;;;;;88.90;52.28;;;13.90;66.00;;;;;;4911582;28;94172;-83
2024/01/23 08:33:17;;;;;;;87.75;52.03;;;14.00;65.90;;;;;;4911039;28;94389;-83
2024/01/23 08:35:43;;;;;;;87.25;51.80;;;14.00;65.90;;;;;;4911324;28;96025;-83
2024/01/23 08:38:09;;;;;;;87.35;51.90;;;13.90;65.70;;;;;;4910426;28;95329;-83
2024/01/23 08:40:35;;;;;;;88.05;51.92;;;13.90;65.60;;;;;;4912110;28;94850;-83
2024/01/23 08:43:01;;;;;;;89.43;52.50;;;13.90;65.60;;;;;;4907848;28;95521;-83
2024/01/23 08:45:27;;;;;;;89.20;51.97;;;13.90;65.50;;;;;;4910569;28;95442;-83
2024/01/23 08:47:53;;;;;;;91.63;52.65;;;13.90;65.50;;;;;;4908452;28;94877;-83
2024/01/23 08:50:18;;;;;;;89.85;52.10;;;13.90;65.50;;;;;;4915480;28;94741;-80
2024/01/23 08:52:45;;;;;;;88.13;52.05;;;14.00;65.50;;;;;;4908745;28;93954;-80
2024/01/23 08:55:11;;;;;;;89.20;52.47;;;14.00;65.40;;;;;;4909996;28;95541;-82
2024/01/23 08:57:36;;;;;;;87.85;51.90;;;14.00;65.30;;;;;;4911288;28;95017;-81
2024/01/23 09:00:04;;;;;;;87.40;51.80;;;14.00;65.40;;;;;;4912305;28;95302;-82
2024/01/23 09:02:29;;;;;;;91.40;52.33;;;14.00;65.40;;;;;;4909246;28;95848;-82
2024/01/23 09:04:55;;;;;;;89.57;52.40;;;14.00;65.30;;;;;;4913621;28;97839;-82
2024/01/23 09:07:22;;;;;;;88.60;52.10;;;14.00;65.30;;;;;;4918605;28;94656;-81
2024/01/23 09:09:51;;;;;;;88.57;52.20;;;14.00;65.30;;;;;;4914269;28;95046;-82
2024/01/23 09:12:17;;;;;;;87.40;51.67;;;14.00;65.10;;;;;;4914650;28;94316;-82
2024/01/23 09:14:43;;;;;;;87.38;52.00;;;14.00;65.10;;;;;;4913841;28;94850;-82
2024/01/23 09:17:09;;;;;;;91.38;52.30;;;14.00;65.10;;;;;;4917234;28;95598;-82
2024/01/23 09:19:35;;;;;;;92.72;52.30;;;14.00;65.10;;;;;;4925536;28;95172;-82
2024/01/23 09:22:00;;;;;;;89.03;52.45;;;14.00;65.00;;;;;;4914346;28;94482;-82
2024/01/23 09:24:26;;;;;;;87.85;52.45;;;14.00;65.00;;;;;;4909337;28;98410;-82
2024/01/23 09:26:54;;;;;;;90.63;52.35;;;14.00;65.00;;;;;;4920313;28;94927;-82
2024/01/23 09:29:20;;;;;;;87.93;51.88;;;14.00;64.90;;;;;;4916455;28;94623;-82
2024/01/23 09:31:47;;;;;;;86.40;51.90;;;14.00;64.80;;;;;;4914876;28;94142;-84
2024/01/23 09:34:13;;;;;;;89.40;52.35;;;14.00;64.90;;;;;;4912895;28;95132;-84
2024/01/23 09:36:39;;;;;;;87.35;52.55;;;14.00;64.80;;;;;;4910683;28;95360;-84
2024/01/23 09:39:04;;;;;;;90.65;52.28;;;14.00;64.80;;;;;;4918809;28;94408;-85
2024/01/23 09:41:33;;;;;;;86.70;52.30;;;14.10;64.80;;;;;;4931573;28;94760;-81
2024/01/23 09:43:59;;;;;;;88.75;52.17;;;14.10;64.60;;;;;;4910046;28;94982;-81
2024/01/23 09:46:25;;;;;;;92.35;52.67;;;14.00;64.60;;;;;;4912436;28;96387;-81
2024/01/23 09:48:52;;;;;;;90.68;52.08;;;14.10;64.70;;;;;;4908000;28;96966;-81
2024/01/23 09:51:19;;;;;;;87.55;52.10;;;14.10;64.70;;;;;;4911610;28;95784;-81
2024/01/23 09:53:45;;;;;;;88.50;52.40;;;14.10;64.70;;;;;;4907571;28;95324;-82
2024/01/23 09:56:11;;;;;;;90.13;52.85;;;14.10;64.60;;;;;;4910448;28;95339;-83
2024/01/23 09:58:37;;;;;;;89.70;52.55;;;14.10;64.50;;;;;;4906315;28;94579;-82
2024/01/23 10:01:04;;;;;;;87.90;52.50;;;14.10;64.30;;;;;;4915289;28;94618;-83
2024/01/23 10:03:35;;;;;;;89.68;52.47;;;14.10;64.30;;;;;;4926264;28;99280;-82
2024/01/23 10:06:03;;;;;;;88.22;52.25;;;14.10;64.30;;;;;;4911490;28;95001;-83
2024/01/23 10:08:29;;;;;;;88.53;52.17;;;14.10;64.30;;;;;;4914632;28;94861;-83
2024/01/23 10:11:01;;;;;;;88.50;52.67;;;14.20;64.20;;;;;;4908397;28;96747;-83
2024/01/23 10:13:28;;;;;;;88.05;52.35;;;14.10;64.00;;;;;;4907191;28;97258;-84
2024/01/23 10:15:54;;;;;;;91.72;52.75;;;14.20;64.10;;;;;;4915258;28;98823;-83
2024/01/23 10:18:24;;;;;;;88.72;52.15;;;14.10;64.20;;;;;;4912791;28;94600;-82
2024/01/23 10:20:50;;;;;;;89.00;52.30;;;14.20;64.10;;;;;;4912283;28;94732;-83
2024/01/23 10:23:17;;;;;;;91.20;52.58;;;14.20;64.10;;;;;;4907894;28;99284;-82
2024/01/23 10:25:42;;;;;;;89.30;52.70;;;14.20;64.10;;;;;;4910329;28;95123;-83
2024/01/23 10:28:09;;;;;;;90.60;52.35;;;14.20;64.00;;;;;;4908572;28;94471;-83
2024/01/23 10:30:36;;;;;;;91.53;52.42;;;14.20;64.00;;;;;;4910535;28;94999;-83
2024/01/23 10:33:05;;;;;;;85.40;51.83;;;14.20;63.90;;;;;;4911048;28;99696;-84
2024/01/23 10:35:33;;;;;;;87.05;52.38;;;14.20;63.80;;;;;;4909503;28;95892;-81
2024/01/23 10:38:02;;;;;;;89.45;52.05;;;14.20;63.90;;;;;;4911874;28;95780;-84
2024/01/23 10:40:29;;;;;;;90.65;52.25;;;14.20;63.90;;;;;;4914787;28;94478;-82
2024/01/23 10:42:59;;;;;;;87.78;52.30;;;14.20;63.80;;;;;;4910919;28;95987;-83
2024/01/23 10:45:25;;;;;;;88.55;52.38;;;14.30;63.90;;;;;;4909985;28;96531;-83
2024/01/23 10:47:57;;;;;;;90.75;52.22;;;14.20;63.80;;;;;;4912372;28;94726;-83
2024/01/23 10:50:22;;;;;;;;;;;14.30;63.90;;;;;;4912655;28;94721;-83
2024/01/23 10:52:49;;;;;;;86.70;52.25;;;14.30;63.70;;;;;;4914554;28;95178;-83
2024/01/23 10:55:20;;;;;;;87.50;51.88;;;14.30;63.60;;;;;;4917189;28;94339;-83
2024/01/23 10:57:47;;;;;;;88.25;52.25;;;14.30;63.60;;;;;;4911998;28;95192;-82
2024/01/23 11:00:16;;;;;;;88.88;52.22;;;14.30;63.60;;;;;;4912345;28;94543;-83
2024/01/23 11:03:04;;;;;;;88.43;51.63;;;14.20;63.50;;;;;;4907530;28;97969;-83
2024/01/23 11:05:43;;;;;;;88.10;52.75;;;14.20;63.70;;;;;;4908837;28;94889;-84
2024/01/23 11:08:27;;;;;;;89.00;52.38;;;14.20;63.70;;;;;;4907773;28;96708;-79
2024/01/23 11:10:59;;;;;;;87.18;52.17;;;14.20;63.70;;;;;;4904375;28;94800;-83
2024/01/23 11:13:48;;;;;;;86.50;52.25;;;14.20;63.70;;;;;;4908218;28;96572;-82
2024/01/23 11:16:14;;;;;;;86.55;52.45;;;14.20;63.80;;;;;;4911779;28;95205;-81
2024/01/23 11:18:40;;;;;;;87.90;52.25;;;14.20;63.80;;;;;;4913332;28;94552;-82
2024/01/23 11:21:05;;;;;;;87.10;51.83;;;14.20;63.80;;;;;;4912598;28;93637;-82
2024/01/23 11:23:42;;;;;;;88.72;52.30;;;14.30;63.80;;;;;;4910484;28;96695;-84
2024/01/23 11:26:22;;;;;;;87.07;52.15;;;14.20;63.70;;;;;;4911163;28;96862;-82
2024/01/23 11:28:51;;;;;;;87.38;51.75;;;14.30;63.70;;;;;;4910360;28;95565;-82
2024/01/23 11:31:18;;;;;;;86.88;51.97;;;14.20;63.70;;;;;;4908776;28;94268;-82
2024/01/23 11:33:45;;;;;;;89.25;52.58;;;14.30;63.70;;;;;;4910570;28;94912;-82
2024/01/23 11:36:21;;;;;;;91.15;52.78;;;14.30;63.60;;;;;;4908774;28;96659;-78
2024/01/23 11:39:00;;;;;;;87.45;52.00;;;14.30;63.50;;;;;;4909780;28;94597;-82
2024/01/23 11:41:28;;;;;;;92.40;52.67;;;14.40;63.60;;;;;;4908200;28;94449;-82
2024/01/23 11:43:55;;;;;;;89.45;52.50;;;14.40;63.50;;;;;;4910346;28;95959;-82
2024/01/23 11:46:25;;;;;;;89.32;52.20;;;14.40;63.40;;;;;;4910678;28;95152;-84
2024/01/23 11:48:52;;;;;;;87.18;52.50;;;14.40;63.40;;;;;;4906461;28;94229;-84
2024/01/23 11:51:18;;;;;;;87.57;51.97;;;14.40;64.20;;;;;;4910350;28;94565;-83
2024/01/23 11:53:45;;;;;;;89.07;52.30;;;14.40;63.30;;;;;;4912095;28;95808;-84
2024/01/23 11:56:13;;;;;;;85.80;51.85;;;14.40;63.40;;;;;;4912302;28;95360;-83
2024/01/23 11:58:41;;;;;;;91.10;52.28;;;14.40;63.30;;;;;;4910879;28;94379;-82
2024/01/23 12:01:08;;;;;;;90.05;52.28;;;14.40;63.40;;;;;;4910399;28;95459;-82
2024/01/23 12:03:37;;;;;;;88.05;52.10;;;14.40;63.40;;;;;;4909880;28;95918;-82
2024/01/23 12:06:03;;;;;;;87.40;52.15;;;14.40;63.40;;;;;;4908605;28;95776;-79
2024/01/23 12:08:29;;;;;;;89.45;52.30;;;14.40;63.50;;;;;;4905842;28;94971;-79
2024/01/23 12:10:56;;;;;;;87.85;52.28;;;14.50;63.40;;;;;;4910155;28;94069;-84
2024/01/23 12:13:23;;;;;;;86.63;52.17;;;14.40;63.30;;;;;;4912693;28;95341;-83
2024/01/23 12:15:48;;;;;;;91.85;52.05;;;14.50;63.40;;;;;;4910831;28;95330;-78
2024/01/23 12:18:14;;;;;;;89.80;52.28;;;14.50;63.30;;;;;;4909898;28;96069;-83
2024/01/23 12:20:50;;;;;;;87.22;52.30;;;14.50;63.30;;;;;;4912484;28;94366;-83
2024/01/23 12:23:19;;;;;;;88.35;52.17;;;14.50;63.30;;;;;;4910999;28;96297;-82
2024/01/23 12:25:46;;;;;;;87.88;51.90;;;14.40;63.30;;;;;;4911534;28;95177;-79